sensor_id;sensor_type;location;lat;lon;timestamp;P1;durP1;ratioP1;P2;durP2;ratioP2
20649;SDS011;10484;48.736;9.332;2022-08-30T00:00:33;9.40;;;6.83;;
20649;SDS011;10484;48.736;9.332;2022-08-30T00:03:17;6.63;;;6.03;;
20649;SDS011;10484;48.736;9.332;2022-08-30T00:05:44;6.77;;;6.17;;
20649;SDS011;10484;48.736;9.332;2022-08-30T00:08:10;6.80;;;6.17;;
20649;SDS011;10484;48.736;9.332;2022-08-30T00:10:37;7.43;;;5.87;;
20649;SDS011;10484;48.736;9.332;2022-08-30T00:13:04;8.60;;;6.23;;
20649;SDS011;10484;48.736;9.332;2022-08-30T00:15:31;6.70;;;6.07;;
20649;SDS011;10484;48.736;9.332;2022-08-30T00:17:57;7.47;;;6.80;;
20649;SDS011;10484;48.736;9.332;2022-08-30T00:20:24;6.57;;;5.97;;
20649;SDS011;10484;48.736;9.332;2022-08-30T00:22:51;6.33;;;5.77;;
20649;SDS011;10484;48.736;9.332;2022-08-30T00:25:18;7.40;;;6.33;;
20649;SDS011;10484;48.736;9.332;2022-08-30T00:27:44;6.70;;;6.10;;
20649;SDS011;10484;48.736;9.332;2022-08-30T00:30:10;7.27;;;6.63;;
20649;SDS011;10484;48.736;9.332;2022-08-30T00:32:38;6.00;;;5.50;;
20649;SDS011;10484;48.736;9.332;2022-08-30T00:35:04;9.03;;;6.17;;
20649;SDS011;10484;48.736;9.332;2022-08-30T00:37:32;6.37;;;5.77;;
20649;SDS011;10484;48.736;9.332;2022-08-30T00:39:58;6.47;;;5.83;;
20649;SDS011;10484;48.736;9.332;2022-08-30T00:42:24;6.40;;;5.80;;
20649;SDS011;10484;48.736;9.332;2022-08-30T00:44:49;7.93;;;6.30;;
20649;SDS011;10484;48.736;9.332;2022-08-30T00:47:15;6.03;;;5.33;;
20649;SDS011;10484;48.736;9.332;2022-08-30T00:49:42;6.53;;;5.90;;
20649;SDS011;10484;48.736;9.332;2022-08-30T00:52:11;6.57;;;6.03;;
20649;SDS011;10484;48.736;9.332;2022-08-30T00:54:38;6.97;;;6.30;;
20649;SDS011;10484;48.736;9.332;2022-08-30T00:57:09;7.27;;;6.23;;
20649;SDS011;10484;48.736;9.332;2022-08-30T00:59:35;8.90;;;6.37;;
20649;SDS011;10484;48.736;9.332;2022-08-30T01:02:02;6.97;;;6.17;;
20649;SDS011;10484;48.736;9.332;2022-08-30T01:04:28;8.40;;;6.70;;
20649;SDS011;10484;48.736;9.332;2022-08-30T01:06:56;7.60;;;5.90;;
20649;SDS011;10484;48.736;9.332;2022-08-30T01:09:24;7.10;;;6.40;;
20649;SDS011;10484;48.736;9.332;2022-08-30T01:11:50;7.73;;;6.13;;
20649;SDS011;10484;48.736;9.332;2022-08-30T01:14:16;6.80;;;6.10;;
20649;SDS011;10484;48.736;9.332;2022-08-30T01:16:42;6.67;;;6.03;;
20649;SDS011;10484;48.736;9.332;2022-08-30T01:22:32;6.47;;;5.97;;
20649;SDS011;10484;48.736;9.332;2022-08-30T01:24:59;8.83;;;6.40;;
20649;SDS011;10484;48.736;9.332;2022-08-30T01:27:25;10.73;;;6.40;;
20649;SDS011;10484;48.736;9.332;2022-08-30T01:29:53;7.77;;;5.63;;
20649;SDS011;10484;48.736;9.332;2022-08-30T01:32:23;6.43;;;5.83;;
20649;SDS011;10484;48.736;9.332;2022-08-30T01:34:53;5.60;;;5.10;;
20649;SDS011;10484;48.736;9.332;2022-08-30T01:37:21;7.40;;;6.00;;
20649;SDS011;10484;48.736;9.332;2022-08-30T01:39:50;7.67;;;5.70;;
20649;SDS011;10484;48.736;9.332;2022-08-30T01:42:16;8.00;;;6.77;;
20649;SDS011;10484;48.736;9.332;2022-08-30T01:44:43;7.20;;;6.10;;
20649;SDS011;10484;48.736;9.332;2022-08-30T01:47:08;6.60;;;6.00;;
20649;SDS011;10484;48.736;9.332;2022-08-30T01:49:35;7.13;;;5.83;;
20649;SDS011;10484;48.736;9.332;2022-08-30T01:52:01;8.23;;;5.57;;
20649;SDS011;10484;48.736;9.332;2022-08-30T01:54:29;9.20;;;5.70;;
20649;SDS011;10484;48.736;9.332;2022-08-30T01:56:55;6.40;;;4.80;;
20649;SDS011;10484;48.736;9.332;2022-08-30T01:59:21;6.47;;;5.87;;
20649;SDS011;10484;48.736;9.332;2022-08-30T02:01:46;6.93;;;6.33;;
20649;SDS011;10484;48.736;9.332;2022-08-30T02:04:12;6.07;;;5.50;;
20649;SDS011;10484;48.736;9.332;2022-08-30T02:06:38;7.07;;;5.40;;
20649;SDS011;10484;48.736;9.332;2022-08-30T02:09:05;5.77;;;5.27;;
20649;SDS011;10484;48.736;9.332;2022-08-30T02:11:31;6.20;;;5.60;;
20649;SDS011;10484;48.736;9.332;2022-08-30T02:13:56;6.07;;;5.57;;
20649;SDS011;10484;48.736;9.332;2022-08-30T02:16:23;7.13;;;6.43;;
20649;SDS011;10484;48.736;9.332;2022-08-30T02:18:50;5.47;;;4.97;;
20649;SDS011;10484;48.736;9.332;2022-08-30T02:21:17;6.13;;;5.33;;
20649;SDS011;10484;48.736;9.332;2022-08-30T02:23:43;6.13;;;5.53;;
20649;SDS011;10484;48.736;9.332;2022-08-30T02:26:10;7.20;;;6.00;;
20649;SDS011;10484;48.736;9.332;2022-08-30T02:28:37;6.27;;;5.30;;
20649;SDS011;10484;48.736;9.332;2022-08-30T02:31:03;6.43;;;5.70;;
20649;SDS011;10484;48.736;9.332;2022-08-30T02:33:29;5.87;;;5.03;;
20649;SDS011;10484;48.736;9.332;2022-08-30T02:35:55;7.67;;;6.70;;
20649;SDS011;10484;48.736;9.332;2022-08-30T02:38:21;8.77;;;6.67;;
20649;SDS011;10484;48.736;9.332;2022-08-30T02:40:49;6.13;;;5.53;;
20649;SDS011;10484;48.736;9.332;2022-08-30T02:43:16;8.23;;;6.03;;
20649;SDS011;10484;48.736;9.332;2022-08-30T02:45:42;10.07;;;6.20;;
20649;SDS011;10484;48.736;9.332;2022-08-30T02:48:08;8.10;;;6.10;;
20649;SDS011;10484;48.736;9.332;2022-08-30T02:50:37;6.70;;;5.83;;
20649;SDS011;10484;48.736;9.332;2022-08-30T02:53:04;7.00;;;5.87;;
20649;SDS011;10484;48.736;9.332;2022-08-30T02:55:30;10.73;;;6.50;;
20649;SDS011;10484;48.736;9.332;2022-08-30T02:57:55;7.13;;;6.43;;
20649;SDS011;10484;48.736;9.332;2022-08-30T03:00:21;6.10;;;5.60;;
20649;SDS011;10484;48.736;9.332;2022-08-30T03:02:47;7.10;;;5.83;;
20649;SDS011;10484;48.736;9.332;2022-08-30T03:05:13;6.67;;;6.00;;
20649;SDS011;10484;48.736;9.332;2022-08-30T03:07:40;6.23;;;5.50;;
20649;SDS011;10484;48.736;9.332;2022-08-30T03:10:07;6.90;;;6.23;;
20649;SDS011;10484;48.736;9.332;2022-08-30T03:12:34;7.03;;;5.60;;
20649;SDS011;10484;48.736;9.332;2022-08-30T03:14:59;5.43;;;4.93;;
20649;SDS011;10484;48.736;9.332;2022-08-30T03:17:26;6.27;;;5.43;;
20649;SDS011;10484;48.736;9.332;2022-08-30T03:19:51;6.20;;;5.70;;
20649;SDS011;10484;48.736;9.332;2022-08-30T03:22:18;7.10;;;6.40;;
20649;SDS011;10484;48.736;9.332;2022-08-30T03:24:44;6.13;;;5.53;;
20649;SDS011;10484;48.736;9.332;2022-08-30T03:27:09;6.43;;;5.83;;
20649;SDS011;10484;48.736;9.332;2022-08-30T03:29:36;8.23;;;6.10;;
20649;SDS011;10484;48.736;9.332;2022-08-30T03:32:03;6.77;;;6.07;;
20649;SDS011;10484;48.736;9.332;2022-08-30T03:34:29;6.80;;;5.57;;
20649;SDS011;10484;48.736;9.332;2022-08-30T03:36:55;6.27;;;5.63;;
20649;SDS011;10484;48.736;9.332;2022-08-30T03:39:21;7.50;;;6.70;;
20649;SDS011;10484;48.736;9.332;2022-08-30T03:41:48;6.70;;;6.10;;
20649;SDS011;10484;48.736;9.332;2022-08-30T03:44:14;7.70;;;7.10;;
20649;SDS011;10484;48.736;9.332;2022-08-30T03:46:39;6.30;;;5.60;;
20649;SDS011;10484;48.736;9.332;2022-08-30T03:49:06;7.07;;;6.37;;
20649;SDS011;10484;48.736;9.332;2022-08-30T03:51:32;6.13;;;5.63;;
20649;SDS011;10484;48.736;9.332;2022-08-30T03:53:58;7.60;;;6.17;;
20649;SDS011;10484;48.736;9.332;2022-08-30T03:56:24;6.63;;;6.00;;
20649;SDS011;10484;48.736;9.332;2022-08-30T03:58:50;8.93;;;6.20;;
20649;SDS011;10484;48.736;9.332;2022-08-30T04:01:16;6.87;;;6.27;;
20649;SDS011;10484;48.736;9.332;2022-08-30T04:03:42;6.80;;;6.13;;
20649;SDS011;10484;48.736;9.332;2022-08-30T04:06:08;6.53;;;5.93;;
20649;SDS011;10484;48.736;9.332;2022-08-30T04:08:34;8.50;;;6.87;;
20649;SDS011;10484;48.736;9.332;2022-08-30T04:10:59;7.20;;;6.57;;
20649;SDS011;10484;48.736;9.332;2022-08-30T04:13:26;7.10;;;6.40;;
20649;SDS011;10484;48.736;9.332;2022-08-30T04:15:53;7.23;;;6.30;;
20649;SDS011;10484;48.736;9.332;2022-08-30T04:18:18;7.10;;;6.50;;
20649;SDS011;10484;48.736;9.332;2022-08-30T04:20:45;8.07;;;6.13;;
20649;SDS011;10484;48.736;9.332;2022-08-30T04:23:11;7.40;;;6.73;;
20649;SDS011;10484;48.736;9.332;2022-08-30T04:25:38;6.60;;;6.00;;
20649;SDS011;10484;48.736;9.332;2022-08-30T04:28:06;9.33;;;6.10;;
20649;SDS011;10484;48.736;9.332;2022-08-30T04:30:33;12.67;;;6.97;;
20649;SDS011;10484;48.736;9.332;2022-08-30T04:33:02;7.50;;;6.73;;
20649;SDS011;10484;48.736;9.332;2022-08-30T04:35:27;7.30;;;6.60;;
20649;SDS011;10484;48.736;9.332;2022-08-30T04:37:53;13.67;;;7.23;;
20649;SDS011;10484;48.736;9.332;2022-08-30T04:40:18;7.53;;;6.83;;
20649;SDS011;10484;48.736;9.332;2022-08-30T04:42:44;8.63;;;6.80;;
20649;SDS011;10484;48.736;9.332;2022-08-30T04:45:14;8.90;;;6.30;;
20649;SDS011;10484;48.736;9.332;2022-08-30T04:47:41;7.17;;;6.40;;
20649;SDS011;10484;48.736;9.332;2022-08-30T04:50:08;9.20;;;6.63;;
20649;SDS011;10484;48.736;9.332;2022-08-30T04:52:36;7.90;;;7.17;;
20649;SDS011;10484;48.736;9.332;2022-08-30T04:55:02;7.37;;;6.67;;
20649;SDS011;10484;48.736;9.332;2022-08-30T04:57:29;7.60;;;6.80;;
20649;SDS011;10484;48.736;9.332;2022-08-30T04:59:55;7.37;;;6.67;;
20649;SDS011;10484;48.736;9.332;2022-08-30T05:02:21;8.10;;;7.30;;
20649;SDS011;10484;48.736;9.332;2022-08-30T05:04:47;7.57;;;6.77;;
20649;SDS011;10484;48.736;9.332;2022-08-30T05:07:32;8.87;;;8.00;;
20649;SDS011;10484;48.736;9.332;2022-08-30T05:09:58;7.33;;;6.60;;
20649;SDS011;10484;48.736;9.332;2022-08-30T05:12:24;8.50;;;7.80;;
20649;SDS011;10484;48.736;9.332;2022-08-30T05:14:51;8.20;;;7.40;;
20649;SDS011;10484;48.736;9.332;2022-08-30T05:17:17;8.30;;;6.83;;
20649;SDS011;10484;48.736;9.332;2022-08-30T05:19:43;8.23;;;7.50;;
20649;SDS011;10484;48.736;9.332;2022-08-30T05:22:08;7.07;;;6.37;;
20649;SDS011;10484;48.736;9.332;2022-08-30T05:24:34;10.67;;;7.13;;
20649;SDS011;10484;48.736;9.332;2022-08-30T05:27:00;7.73;;;6.93;;
20649;SDS011;10484;48.736;9.332;2022-08-30T05:29:26;8.40;;;7.50;;
20649;SDS011;10484;48.736;9.332;2022-08-30T05:31:52;8.30;;;7.00;;
20649;SDS011;10484;48.736;9.332;2022-08-30T05:34:18;8.53;;;7.57;;
20649;SDS011;10484;48.736;9.332;2022-08-30T05:36:44;12.47;;;8.50;;
20649;SDS011;10484;48.736;9.332;2022-08-30T05:39:10;7.43;;;6.73;;
20649;SDS011;10484;48.736;9.332;2022-08-30T05:41:37;10.50;;;7.57;;
20649;SDS011;10484;48.736;9.332;2022-08-30T05:44:03;8.43;;;6.87;;
20649;SDS011;10484;48.736;9.332;2022-08-30T05:46:31;9.10;;;8.17;;
20649;SDS011;10484;48.736;9.332;2022-08-30T05:49:01;9.10;;;8.13;;
20649;SDS011;10484;48.736;9.332;2022-08-30T05:51:29;8.97;;;8.07;;
20649;SDS011;10484;48.736;9.332;2022-08-30T05:53:57;10.23;;;8.57;;
20649;SDS011;10484;48.736;9.332;2022-08-30T05:56:25;11.87;;;10.63;;
20649;SDS011;10484;48.736;9.332;2022-08-30T05:58:56;12.07;;;10.40;;
20649;SDS011;10484;48.736;9.332;2022-08-30T06:03:53;14.00;;;12.40;;
20649;SDS011;10484;48.736;9.332;2022-08-30T06:06:21;12.93;;;11.63;;
20649;SDS011;10484;48.736;9.332;2022-08-30T06:08:47;13.10;;;11.90;;
20649;SDS011;10484;48.736;9.332;2022-08-30T06:11:14;12.83;;;10.40;;
20649;SDS011;10484;48.736;9.332;2022-08-30T06:13:43;13.90;;;10.70;;
20649;SDS011;10484;48.736;9.332;2022-08-30T06:16:10;11.40;;;10.20;;
20649;SDS011;10484;48.736;9.332;2022-08-30T06:18:36;10.77;;;9.63;;
20649;SDS011;10484;48.736;9.332;2022-08-30T06:21:02;17.13;;;10.37;;
20649;SDS011;10484;48.736;9.332;2022-08-30T06:23:28;11.00;;;9.97;;
20649;SDS011;10484;48.736;9.332;2022-08-30T06:25:54;11.53;;;10.23;;
20649;SDS011;10484;48.736;9.332;2022-08-30T06:28:20;11.90;;;10.43;;
20649;SDS011;10484;48.736;9.332;2022-08-30T06:30:46;10.97;;;9.87;;
20649;SDS011;10484;48.736;9.332;2022-08-30T06:33:12;12.20;;;10.23;;
20649;SDS011;10484;48.736;9.332;2022-08-30T06:35:38;11.63;;;10.40;;
20649;SDS011;10484;48.736;9.332;2022-08-30T06:38:03;16.63;;;10.20;;
20649;SDS011;10484;48.736;9.332;2022-08-30T06:40:29;11.73;;;10.50;;
20649;SDS011;10484;48.736;9.332;2022-08-30T06:42:55;11.40;;;9.97;;
20649;SDS011;10484;48.736;9.332;2022-08-30T06:45:20;14.70;;;10.17;;
20649;SDS011;10484;48.736;9.332;2022-08-30T06:47:46;16.73;;;11.37;;
20649;SDS011;10484;48.736;9.332;2022-08-30T06:50:13;12.00;;;10.80;;
20649;SDS011;10484;48.736;9.332;2022-08-30T06:52:40;12.00;;;10.80;;
20649;SDS011;10484;48.736;9.332;2022-08-30T06:55:11;10.97;;;9.87;;
20649;SDS011;10484;48.736;9.332;2022-08-30T06:57:38;11.27;;;10.07;;
20649;SDS011;10484;48.736;9.332;2022-08-30T07:00:06;11.00;;;10.00;;
20649;SDS011;10484;48.736;9.332;2022-08-30T07:02:33;9.83;;;8.83;;
20649;SDS011;10484;48.736;9.332;2022-08-30T07:05:01;13.23;;;10.57;;
20649;SDS011;10484;48.736;9.332;2022-08-30T07:07:27;10.80;;;9.30;;
20649;SDS011;10484;48.736;9.332;2022-08-30T07:09:52;12.30;;;9.50;;
20649;SDS011;10484;48.736;9.332;2022-08-30T07:12:19;11.10;;;9.60;;
20649;SDS011;10484;48.736;9.332;2022-08-30T07:14:46;11.47;;;10.27;;
20649;SDS011;10484;48.736;9.332;2022-08-30T07:17:12;13.93;;;9.37;;
20649;SDS011;10484;48.736;9.332;2022-08-30T07:19:57;13.60;;;8.97;;
20649;SDS011;10484;48.736;9.332;2022-08-30T07:22:22;9.93;;;8.50;;
20649;SDS011;10484;48.736;9.332;2022-08-30T07:24:48;11.27;;;9.83;;
20649;SDS011;10484;48.736;9.332;2022-08-30T07:27:14;11.10;;;9.37;;
20649;SDS011;10484;48.736;9.332;2022-08-30T07:29:40;10.30;;;8.27;;
20649;SDS011;10484;48.736;9.332;2022-08-30T07:32:06;11.90;;;9.10;;
20649;SDS011;10484;48.736;9.332;2022-08-30T07:34:32;11.40;;;8.90;;
20649;SDS011;10484;48.736;9.332;2022-08-30T07:36:58;11.17;;;7.90;;
20649;SDS011;10484;48.736;9.332;2022-08-30T07:39:23;10.03;;;8.90;;
20649;SDS011;10484;48.736;9.332;2022-08-30T07:41:49;14.83;;;9.60;;
20649;SDS011;10484;48.736;9.332;2022-08-30T07:44:15;9.63;;;8.73;;
20649;SDS011;10484;48.736;9.332;2022-08-30T07:46:41;9.97;;;8.23;;
20649;SDS011;10484;48.736;9.332;2022-08-30T07:49:07;8.80;;;7.90;;
20649;SDS011;10484;48.736;9.332;2022-08-30T07:51:33;10.27;;;7.90;;
20649;SDS011;10484;48.736;9.332;2022-08-30T07:53:59;8.70;;;7.80;;
20649;SDS011;10484;48.736;9.332;2022-08-30T07:56:25;8.73;;;7.13;;
20649;SDS011;10484;48.736;9.332;2022-08-30T07:58:51;10.10;;;8.37;;
20649;SDS011;10484;48.736;9.332;2022-08-30T08:01:17;9.80;;;7.50;;
20649;SDS011;10484;48.736;9.332;2022-08-30T08:03:44;13.90;;;7.93;;
20649;SDS011;10484;48.736;9.332;2022-08-30T08:06:12;9.70;;;6.77;;
20649;SDS011;10484;48.736;9.332;2022-08-30T08:08:39;11.40;;;8.10;;
20649;SDS011;10484;48.736;9.332;2022-08-30T08:11:06;12.50;;;8.07;;
20649;SDS011;10484;48.736;9.332;2022-08-30T08:13:34;7.57;;;6.47;;
20649;SDS011;10484;48.736;9.332;2022-08-30T08:16:00;9.73;;;7.23;;
20649;SDS011;10484;48.736;9.332;2022-08-30T08:18:25;7.70;;;6.93;;
20649;SDS011;10484;48.736;9.332;2022-08-30T08:20:51;11.73;;;6.97;;
20649;SDS011;10484;48.736;9.332;2022-08-30T08:23:17;8.03;;;7.33;;
20649;SDS011;10484;48.736;9.332;2022-08-30T08:25:42;7.77;;;6.93;;
20649;SDS011;10484;48.736;9.332;2022-08-30T08:28:08;7.63;;;6.73;;
20649;SDS011;10484;48.736;9.332;2022-08-30T08:30:35;9.83;;;8.40;;
20649;SDS011;10484;48.736;9.332;2022-08-30T08:33:02;9.80;;;6.80;;
20649;SDS011;10484;48.736;9.332;2022-08-30T08:35:29;8.80;;;6.80;;
20649;SDS011;10484;48.736;9.332;2022-08-30T08:37:55;7.33;;;6.30;;
20649;SDS011;10484;48.736;9.332;2022-08-30T08:40:21;8.93;;;6.53;;
20649;SDS011;10484;48.736;9.332;2022-08-30T08:45:25;7.63;;;6.90;;
20649;SDS011;10484;48.736;9.332;2022-08-30T08:48:10;7.67;;;6.60;;
20649;SDS011;10484;48.736;9.332;2022-08-30T08:50:36;10.60;;;6.40;;
20649;SDS011;10484;48.736;9.332;2022-08-30T08:53:22;7.93;;;6.80;;
20649;SDS011;10484;48.736;9.332;2022-08-30T08:55:59;6.70;;;5.63;;
20649;SDS011;10484;48.736;9.332;2022-08-30T08:58:30;9.70;;;6.40;;
20649;SDS011;10484;48.736;9.332;2022-08-30T09:01:04;10.10;;;6.13;;
20649;SDS011;10484;48.736;9.332;2022-08-30T09:03:31;13.50;;;8.13;;
20649;SDS011;10484;48.736;9.332;2022-08-30T09:05:57;7.17;;;6.20;;
20649;SDS011;10484;48.736;9.332;2022-08-30T09:08:26;10.50;;;6.00;;
20649;SDS011;10484;48.736;9.332;2022-08-30T09:10:59;7.83;;;7.00;;
20649;SDS011;10484;48.736;9.332;2022-08-30T09:13:27;6.70;;;6.10;;
20649;SDS011;10484;48.736;9.332;2022-08-30T09:15:53;7.13;;;6.50;;
20649;SDS011;10484;48.736;9.332;2022-08-30T09:18:38;7.90;;;5.50;;
20649;SDS011;10484;48.736;9.332;2022-08-30T09:21:07;5.60;;;5.00;;
20649;SDS011;10484;48.736;9.332;2022-08-30T09:23:34;7.00;;;6.30;;
20649;SDS011;10484;48.736;9.332;2022-08-30T09:26:04;7.77;;;5.60;;
20649;SDS011;10484;48.736;9.332;2022-08-30T09:28:53;5.97;;;5.40;;
20649;SDS011;10484;48.736;9.332;2022-08-30T09:36:21;5.60;;;5.10;;
20649;SDS011;10484;48.736;9.332;2022-08-30T09:39:01;5.60;;;5.10;;
20649;SDS011;10484;48.736;9.332;2022-08-30T09:41:33;6.50;;;5.90;;
20649;SDS011;10484;48.736;9.332;2022-08-30T09:44:14;6.03;;;5.13;;
20649;SDS011;10484;48.736;9.332;2022-08-30T09:46:47;8.43;;;5.80;;
20649;SDS011;10484;48.736;9.332;2022-08-30T09:49:37;6.47;;;5.87;;
20649;SDS011;10484;48.736;9.332;2022-08-30T09:57:23;5.83;;;5.23;;
20649;SDS011;10484;48.736;9.332;2022-08-30T10:00:17;6.57;;;6.07;;
20649;SDS011;10484;48.736;9.332;2022-08-30T10:11:07;5.87;;;5.47;;
20649;SDS011;10484;48.736;9.332;2022-08-30T10:14:06;6.57;;;5.70;;
20649;SDS011;10484;48.736;9.332;2022-08-30T10:16:52;5.90;;;5.40;;
20649;SDS011;10484;48.736;9.332;2022-08-30T10:19:37;6.47;;;5.90;;
20649;SDS011;10484;48.736;9.332;2022-08-30T10:22:18;8.60;;;5.57;;
20649;SDS011;10484;48.736;9.332;2022-08-30T10:24:52;7.60;;;6.00;;
20649;SDS011;10484;48.736;9.332;2022-08-30T10:28:27;6.03;;;5.43;;
20649;SDS011;10484;48.736;9.332;2022-08-30T10:30:27;5.50;;;5.10;;
20649;SDS011;10484;48.736;9.332;2022-08-30T10:35:46;5.70;;;5.23;;
20649;SDS011;10484;48.736;9.332;2022-08-30T10:38:23;10.47;;;5.70;;
20649;SDS011;10484;48.736;9.332;2022-08-30T10:41:02;6.23;;;4.80;;
20649;SDS011;10484;48.736;9.332;2022-08-30T10:49:43;5.57;;;5.13;;
20649;SDS011;10484;48.736;9.332;2022-08-30T10:54:58;5.43;;;4.93;;
20649;SDS011;10484;48.736;9.332;2022-08-30T10:57:38;5.57;;;5.03;;
20649;SDS011;10484;48.736;9.332;2022-08-30T11:00:09;5.00;;;4.50;;
20649;SDS011;10484;48.736;9.332;2022-08-30T11:05:24;5.70;;;5.20;;
20649;SDS011;10484;48.736;9.332;2022-08-30T11:13:20;4.90;;;4.30;;
20649;SDS011;10484;48.736;9.332;2022-08-30T11:15:54;4.63;;;4.33;;
20649;SDS011;10484;48.736;9.332;2022-08-30T11:18:31;5.37;;;4.87;;
20649;SDS011;10484;48.736;9.332;2022-08-30T11:31:55;4.77;;;4.27;;
20649;SDS011;10484;48.736;9.332;2022-08-30T11:47:48;4.83;;;3.93;;
20649;SDS011;10484;48.736;9.332;2022-08-30T11:56:15;5.03;;;4.43;;
20649;SDS011;10484;48.736;9.332;2022-08-30T12:04:00;5.77;;;4.67;;
20649;SDS011;10484;48.736;9.332;2022-08-30T12:09:08;4.83;;;4.43;;
20649;SDS011;10484;48.736;9.332;2022-08-30T12:14:03;4.50;;;4.10;;
20649;SDS011;10484;48.736;9.332;2022-08-30T12:19:29;5.70;;;4.40;;
20649;SDS011;10484;48.736;9.332;2022-08-30T12:22:01;4.87;;;4.47;;
20649;SDS011;10484;48.736;9.332;2022-08-30T12:24:35;5.00;;;4.50;;
20649;SDS011;10484;48.736;9.332;2022-08-30T12:29:50;5.10;;;4.57;;
20649;SDS011;10484;48.736;9.332;2022-08-30T12:32:28;5.00;;;3.97;;
20649;SDS011;10484;48.736;9.332;2022-08-30T12:34:56;4.80;;;4.50;;
20649;SDS011;10484;48.736;9.332;2022-08-30T12:37:24;4.93;;;4.50;;
20649;SDS011;10484;48.736;9.332;2022-08-30T12:39:59;4.63;;;4.23;;
20649;SDS011;10484;48.736;9.332;2022-08-30T12:42:35;4.40;;;4.10;;
20649;SDS011;10484;48.736;9.332;2022-08-30T12:45:23;4.50;;;4.10;;
20649;SDS011;10484;48.736;9.332;2022-08-30T12:48:02;4.80;;;4.40;;
20649;SDS011;10484;48.736;9.332;2022-08-30T12:50:42;9.80;;;5.10;;
20649;SDS011;10484;48.736;9.332;2022-08-30T12:53:20;4.97;;;4.23;;
20649;SDS011;10484;48.736;9.332;2022-08-30T12:55:52;9.03;;;4.30;;
20649;SDS011;10484;48.736;9.332;2022-08-30T12:58:37;4.30;;;4.00;;
20649;SDS011;10484;48.736;9.332;2022-08-30T13:06:57;4.57;;;4.17;;
20649;SDS011;10484;48.736;9.332;2022-08-30T13:12:02;5.10;;;4.60;;
20649;SDS011;10484;48.736;9.332;2022-08-30T13:14:37;8.67;;;5.60;;
20649;SDS011;10484;48.736;9.332;2022-08-30T13:19:37;4.70;;;4.30;;
20649;SDS011;10484;48.736;9.332;2022-08-30T13:22:05;4.43;;;4.03;;
20649;SDS011;10484;48.736;9.332;2022-08-30T13:24:49;4.57;;;4.17;;
20649;SDS011;10484;48.736;9.332;2022-08-30T13:27:15;5.10;;;4.60;;
20649;SDS011;10484;48.736;9.332;2022-08-30T13:29:41;10.10;;;4.23;;
20649;SDS011;10484;48.736;9.332;2022-08-30T13:32:07;5.07;;;4.77;;
20649;SDS011;10484;48.736;9.332;2022-08-30T13:34:32;4.60;;;4.30;;
20649;SDS011;10484;48.736;9.332;2022-08-30T13:36:59;5.03;;;4.63;;
20649;SDS011;10484;48.736;9.332;2022-08-30T13:39:26;5.10;;;4.60;;
20649;SDS011;10484;48.736;9.332;2022-08-30T13:41:52;5.17;;;4.70;;
20649;SDS011;10484;48.736;9.332;2022-08-30T13:44:18;5.60;;;4.47;;
20649;SDS011;10484;48.736;9.332;2022-08-30T13:46:48;5.57;;;4.50;;
20649;SDS011;10484;48.736;9.332;2022-08-30T13:49:19;5.37;;;4.87;;
20649;SDS011;10484;48.736;9.332;2022-08-30T13:51:50;5.03;;;4.47;;
20649;SDS011;10484;48.736;9.332;2022-08-30T13:54:18;5.83;;;4.07;;
20649;SDS011;10484;48.736;9.332;2022-08-30T13:56:47;5.77;;;4.87;;
20649;SDS011;10484;48.736;9.332;2022-08-30T13:59:13;4.70;;;4.23;;
20649;SDS011;10484;48.736;9.332;2022-08-30T14:01:39;6.07;;;4.50;;
20649;SDS011;10484;48.736;9.332;2022-08-30T14:04:05;4.63;;;4.20;;
20649;SDS011;10484;48.736;9.332;2022-08-30T14:06:31;5.13;;;4.63;;
20649;SDS011;10484;48.736;9.332;2022-08-30T14:08:56;4.90;;;4.50;;
20649;SDS011;10484;48.736;9.332;2022-08-30T14:11:22;4.80;;;4.30;;
20649;SDS011;10484;48.736;9.332;2022-08-30T14:13:48;5.07;;;4.73;;
20649;SDS011;10484;48.736;9.332;2022-08-30T14:16:14;4.20;;;3.90;;
20649;SDS011;10484;48.736;9.332;2022-08-30T14:18:40;5.37;;;4.10;;
20649;SDS011;10484;48.736;9.332;2022-08-30T14:21:05;4.60;;;4.20;;
20649;SDS011;10484;48.736;9.332;2022-08-30T14:23:31;4.57;;;4.17;;
20649;SDS011;10484;48.736;9.332;2022-08-30T14:25:57;5.60;;;5.03;;
20649;SDS011;10484;48.736;9.332;2022-08-30T14:28:25;4.20;;;3.90;;
20649;SDS011;10484;48.736;9.332;2022-08-30T14:30:54;4.80;;;4.40;;
20649;SDS011;10484;48.736;9.332;2022-08-30T14:33:20;5.23;;;4.40;;
20649;SDS011;10484;48.736;9.332;2022-08-30T14:35:45;4.63;;;4.23;;
20649;SDS011;10484;48.736;9.332;2022-08-30T14:38:11;4.73;;;4.33;;
20649;SDS011;10484;48.736;9.332;2022-08-30T14:40:37;4.67;;;4.27;;
20649;SDS011;10484;48.736;9.332;2022-08-30T14:43:03;4.73;;;4.33;;
20649;SDS011;10484;48.736;9.332;2022-08-30T14:45:28;5.10;;;4.03;;
20649;SDS011;10484;48.736;9.332;2022-08-30T14:47:55;4.70;;;4.27;;
20649;SDS011;10484;48.736;9.332;2022-08-30T14:50:21;5.00;;;4.63;;
20649;SDS011;10484;48.736;9.332;2022-08-30T14:52:48;5.17;;;4.77;;
20649;SDS011;10484;48.736;9.332;2022-08-30T14:55:14;4.90;;;4.50;;
20649;SDS011;10484;48.736;9.332;2022-08-30T14:57:40;4.90;;;4.50;;
20649;SDS011;10484;48.736;9.332;2022-08-30T15:00:07;4.20;;;3.90;;
20649;SDS011;10484;48.736;9.332;2022-08-30T15:02:36;6.53;;;4.40;;
20649;SDS011;10484;48.736;9.332;2022-08-30T15:05:02;5.23;;;4.73;;
20649;SDS011;10484;48.736;9.332;2022-08-30T15:07:27;5.57;;;5.07;;
20649;SDS011;10484;48.736;9.332;2022-08-30T15:09:53;4.40;;;4.10;;
20649;SDS011;10484;48.736;9.332;2022-08-30T15:12:19;4.80;;;4.50;;
20649;SDS011;10484;48.736;9.332;2022-08-30T15:14:45;4.37;;;4.00;;
20649;SDS011;10484;48.736;9.332;2022-08-30T15:17:10;5.43;;;4.93;;
20649;SDS011;10484;48.736;9.332;2022-08-30T15:19:37;5.37;;;4.90;;
20649;SDS011;10484;48.736;9.332;2022-08-30T15:22:03;4.87;;;4.37;;
20649;SDS011;10484;48.736;9.332;2022-08-30T15:24:30;5.00;;;4.50;;
20649;SDS011;10484;48.736;9.332;2022-08-30T15:26:59;4.80;;;4.50;;
20649;SDS011;10484;48.736;9.332;2022-08-30T15:29:28;4.90;;;4.50;;
20649;SDS011;10484;48.736;9.332;2022-08-30T15:31:54;4.70;;;4.30;;
20649;SDS011;10484;48.736;9.332;2022-08-30T15:34:20;5.50;;;5.00;;
20649;SDS011;10484;48.736;9.332;2022-08-30T15:36:47;5.20;;;4.80;;
20649;SDS011;10484;48.736;9.332;2022-08-30T15:39:13;5.87;;;4.90;;
20649;SDS011;10484;48.736;9.332;2022-08-30T15:41:40;5.03;;;4.63;;
20649;SDS011;10484;48.736;9.332;2022-08-30T15:44:07;4.30;;;4.00;;
20649;SDS011;10484;48.736;9.332;2022-08-30T15:46:33;5.20;;;4.70;;
20649;SDS011;10484;48.736;9.332;2022-08-30T15:49:03;4.70;;;4.30;;
20649;SDS011;10484;48.736;9.332;2022-08-30T15:51:31;5.20;;;4.73;;
20649;SDS011;10484;48.736;9.332;2022-08-30T15:53:58;5.40;;;4.93;;
20649;SDS011;10484;48.736;9.332;2022-08-30T15:56:24;4.97;;;4.57;;
20649;SDS011;10484;48.736;9.332;2022-08-30T15:58:50;5.00;;;4.23;;
20649;SDS011;10484;48.736;9.332;2022-08-30T16:01:16;4.70;;;4.27;;
20649;SDS011;10484;48.736;9.332;2022-08-30T16:03:42;5.10;;;4.60;;
20649;SDS011;10484;48.736;9.332;2022-08-30T16:08:42;5.43;;;5.00;;
20649;SDS011;10484;48.736;9.332;2022-08-30T16:11:09;5.10;;;4.80;;
20649;SDS011;10484;48.736;9.332;2022-08-30T16:13:36;4.33;;;4.03;;
20649;SDS011;10484;48.736;9.332;2022-08-30T16:16:02;5.73;;;4.53;;
20649;SDS011;10484;48.736;9.332;2022-08-30T16:18:30;5.17;;;4.53;;
20649;SDS011;10484;48.736;9.332;2022-08-30T16:21:06;6.47;;;4.00;;
20649;SDS011;10484;48.736;9.332;2022-08-30T16:23:44;5.03;;;4.53;;
20649;SDS011;10484;48.736;9.332;2022-08-30T16:26:11;4.80;;;4.40;;
20649;SDS011;10484;48.736;9.332;2022-08-30T16:28:37;5.37;;;4.40;;
20649;SDS011;10484;48.736;9.332;2022-08-30T16:31:05;5.80;;;5.30;;
20649;SDS011;10484;48.736;9.332;2022-08-30T16:33:30;5.40;;;4.90;;
20649;SDS011;10484;48.736;9.332;2022-08-30T16:35:57;5.93;;;5.20;;
20649;SDS011;10484;48.736;9.332;2022-08-30T16:38:23;7.33;;;4.70;;